AA726 / N349AN 7700 Squawk Report (17th of September, 2019)

Aircraft B763 Reg No. N349AN Age 16 years old
Model 767 Jet engines 2 First flight 15-07-03
Registered 25-07-03 Rollout 23-06-03 Delivered 25-07-03
Construction No. 33088 Line No. 0913 Series 323(ER)
ADSHEX A3DECA Airline name American Airlines Owner N/A
Airfield based Dallas-Fort Worth~TX~N First tracked 2017-07-13 07:26:00
Time Lat Lon Altitude Heading Speed Vertical Rate
2019-09-17 02:48:20 GMT 39.991096 -82.888069 0 3
2019-09-17 02:48:11 GMT 39.991093 -82.888062 0 3
2019-09-17 02:48:01 GMT 39.991264 -82.887894 0 3
2019-09-17 02:47:50 GMT 39.991436 -82.887726 0 3
2019-09-17 02:47:40 GMT 39.991432 -82.887726 0 3
2019-09-17 02:47:27 GMT 39.991608 -82.887550 0 3
2019-09-17 02:47:18 GMT 39.991779 -82.887558 0 3
2019-09-17 02:47:08 GMT 39.991783 -82.887383 0 4
2019-09-17 02:46:58 GMT 39.991951 -82.887039 0 7
2019-09-17 02:46:47 GMT 39.991959 -82.886696 0 6
2019-09-17 02:46:37 GMT 39.992123 -82.886353 0 6
2019-09-17 02:46:26 GMT 39.992123 -82.886002 0 6
2019-09-17 02:46:17 GMT 39.992123 -82.885834 0 5
2019-09-17 02:46:06 GMT 39.991959 -82.885666 0 4
2019-09-17 02:45:55 GMT 39.991783 -82.885666 0 5
2019-09-17 02:45:44 GMT 39.991608 -82.885834 0 5
2019-09-17 02:45:28 GMT 39.991264 -82.886002 0 5
2019-09-17 02:45:23 GMT 39.991268 -82.886009 0 6
2019-09-17 02:45:14 GMT 39.990921 -82.886002 0 7
2019-09-17 02:45:04 GMT 39.990746 -82.885841 0 7
2019-09-17 02:44:53 GMT 39.990410 -82.885841 0 6
2019-09-17 02:44:43 GMT 39.990234 -82.886185 0 6
2019-09-17 02:44:32 GMT 39.990234 -82.886353 0 5
2019-09-17 02:44:22 GMT 39.990406 -82.886688 0 4
2019-09-17 02:44:01 GMT 39.990578 -82.886688 0 3
2019-09-17 02:43:50 GMT 39.990749 -82.886520 0 3
2019-09-17 02:43:40 GMT 39.990746 -82.886520 0 3
2019-09-17 02:43:19 GMT 39.990921 -82.886353 0 3
2019-09-17 02:42:58 GMT 39.991093 -82.886185 0 3
2019-09-17 02:42:47 GMT 39.991268 -82.886009 0 3
2019-09-17 02:42:37 GMT 39.991436 -82.886002 0 3
2019-09-17 02:42:25 GMT 39.991432 -82.885841 0 3
2019-09-17 02:42:15 GMT 39.991608 -82.885834 0 3
2019-09-17 02:42:06 GMT 39.991608 -82.885841 0 3
2019-09-17 02:41:54 GMT 39.991779 -82.885834 0 4
2019-09-17 02:41:44 GMT 39.991779 -82.886185 0 7
2019-09-17 02:41:34 GMT 39.991959 -82.886520 0 10
2019-09-17 02:41:23 GMT 39.992123 -82.887207 0 11
2019-09-17 02:41:10 GMT 39.992294 -82.888062 0 12
2019-09-17 02:41:02 GMT 39.992294 -82.888580 0 11
2019-09-17 02:40:35 GMT 39.992641 -82.890305 0 11
2019-09-17 02:38:44 GMT 39.994179 -82.897858 0 13
2019-09-17 02:38:32 GMT 39.994179 -82.898712 0 13
2019-09-17 02:38:26 GMT 39.994354 -82.899048 0 12
2019-09-17 02:38:05 GMT 39.994530 -82.900597 0 12
2019-09-17 02:37:54 GMT 39.994701 -82.901283 0 11
2019-09-17 02:37:44 GMT 39.994865 -82.901978 0 10
2019-09-17 02:37:33 GMT 39.994865 -82.902489 0 10
2019-09-17 02:37:19 GMT 39.995041 -82.903175 0 10
2019-09-17 02:37:13 GMT 39.995216 -82.903519 0 10
2019-09-17 02:36:58 GMT 39.995392 -82.904381 0 11
2019-09-17 02:36:52 GMT 39.995384 -82.904724 0 11
2019-09-17 02:36:43 GMT 39.995384 -82.905411 0 11
2019-09-17 02:36:31 GMT 39.995556 -82.906097 0 11
2019-09-17 02:36:21 GMT 39.995728 -82.906776 0 11
2019-09-17 02:36:12 GMT 39.995728 -82.907471 0 11
2019-09-17 02:36:00 GMT 39.995899 -82.908157 0 12
2019-09-17 02:35:49 GMT 39.996071 -82.908844 0 12
2019-09-17 02:35:38 GMT 39.996078 -82.909698 0 11
2019-09-17 02:35:30 GMT 39.996239 -82.910042 0 10
2019-09-17 02:35:19 GMT 39.996414 -82.910721 0 9
2019-09-17 02:35:09 GMT 39.996414 -82.911240 0 8
2019-09-17 02:34:59 GMT 39.996590 -82.911591 0 8
2019-09-17 02:34:48 GMT 39.996586 -82.912094 0 7
2019-09-17 02:34:39 GMT 39.996761 -82.912445 0 7
2019-09-17 02:34:28 GMT 39.996586 -82.912781 0 7
2019-09-17 02:34:17 GMT 39.996243 -82.912964 0 10
2019-09-17 02:34:07 GMT 39.995899 -82.912964 0 10
2019-09-17 02:33:57 GMT 39.995392 -82.912956 0 10
2019-09-17 02:33:46 GMT 39.995213 -82.912445 0 10
2019-09-17 02:33:36 GMT 39.995216 -82.911758 0 11
2019-09-17 02:33:26 GMT 39.995213 -82.911240 0 11
2019-09-17 02:33:15 GMT 39.995213 -82.910553 0 11
2019-09-17 02:33:04 GMT 39.995216 -82.909866 0 10
2019-09-17 02:32:54 GMT 39.995216 -82.909355 0 10
We lost coverage of the aircraft here for a total of 9 minutes
2019-09-17 02:24:06 GMT 39.994526 -82.907120 0 278 4 0
2019-09-17 02:23:55 GMT 39.994526 -82.906433 0 278 20 0
2019-09-17 02:23:44 GMT 39.994354 -82.904716 0 275 35 0
2019-09-17 02:23:34 GMT 39.994019 -82.900948 0 275 80 0
2019-09-17 02:23:19 GMT 39.993496 -82.892365 0 275 135 0
2019-09-17 02:23:12 GMT 39.992981 -82.885841 0 275 160 0
2019-09-17 02:23:01 GMT 39.992294 -82.874878 750 275 170 -768
2019-09-17 02:22:52 GMT 39.991791 -82.866272 875 275 173 -896
2019-09-17 02:22:43 GMT 39.991074 -82.855644 1,025 275 174 -960
2019-09-17 02:22:32 GMT 39.990417 -82.844482 1,175 276 176 -832
2019-09-17 02:22:21 GMT 39.989548 -82.833313 1,350 275 177 -960
2019-09-17 02:22:11 GMT 39.988861 -82.822327 1,525 275 177 -832
2019-09-17 02:21:58 GMT 39.987991 -82.807922 1,725 276 177 -832
2019-09-17 02:21:50 GMT 39.987488 -82.800018 1,825 276 177 -832
2019-09-17 02:21:40 GMT 39.985931 -82.776001 2,200 275 175 -896
2019-09-17 02:21:28 GMT 39.985931 -82.776001 2,200 275 173 -960
2019-09-17 02:21:17 GMT 39.985107 -82.763428 2,300 276 173 -960
2019-09-17 02:21:07 GMT 39.984413 -82.755013 2,475 277 170 -896
2019-09-17 02:20:57 GMT 39.983551 -82.743896 2,650 275 168 -960
2019-09-17 02:20:48 GMT 39.983204 -82.735291 2,775 275 167 -832
2019-09-17 02:20:36 GMT 39.982506 -82.722931 2,850 274 176 64
2019-09-17 02:20:27 GMT 39.981670 -82.713318 2,850 277 186 -64
2019-09-17 02:20:16 GMT 39.979752 -82.688599 2,875 269 197 128
2019-09-17 02:20:05 GMT 39.979752 -82.688599 2,875 273 196 -128
2019-09-17 02:19:56 GMT 39.979759 -82.676048 2,875 268 199 192
2019-09-17 02:19:45 GMT 39.979248 -82.664070 2,850 283 198 0
2019-09-17 02:19:33 GMT 39.973057 -82.650642 2,875 314 202 -256
2019-09-17 02:19:25 GMT 39.968262 -82.644165 2,900 314 202 -256
2019-09-17 02:19:14 GMT 39.961742 -82.635231 2,900 315 204 448
2019-09-17 02:19:03 GMT 39.954529 -82.625610 2,850 315 211 0
2019-09-17 02:18:52 GMT 39.946793 -82.615479 2,875 315 212 0
2019-09-17 02:18:43 GMT 39.940292 -82.606567 2,875 312 214 0
2019-09-17 02:18:31 GMT 39.933609 -82.594849 2,875 303 216 0
2019-09-17 02:18:21 GMT 39.928600 -82.583168 2,875 297 217 -64
2019-09-17 02:18:11 GMT 39.924316 -82.571869 2,875 299 216 64
2019-09-17 02:18:01 GMT 39.918495 -82.560364 2,875 314 215 0
2019-09-17 02:17:51 GMT 39.910263 -82.552818 2,875 337 212 -64
2019-09-17 02:17:41 GMT 39.899414 -82.549721 2,875 359 211 0
2019-09-17 02:17:26 GMT 39.887238 -82.552109 2,875 23 211 0
2019-09-17 02:17:19 GMT 39.880554 -82.557602 2,875 42 212 0
2019-09-17 02:17:03 GMT 39.873184 -82.574974 2,875 73 217 0
2019-09-17 02:16:57 GMT 39.872635 -82.582680 2,875 92 220 -64
2019-09-17 02:16:47 GMT 39.873341 -82.595703 2,875 95 219 0
2019-09-17 02:16:37 GMT 39.874374 -82.608948 2,875 96 218 0
2019-09-17 02:16:26 GMT 39.875576 -82.623352 2,875 95 217 0
2019-09-17 02:16:15 GMT 39.876617 -82.636597 2,875 95 217 64
2019-09-17 02:16:06 GMT 39.877625 -82.651001 2,850 95 222 128
2019-09-17 02:15:54 GMT 39.878651 -82.665100 2,850 95 227 -384
2019-09-17 02:15:45 GMT 39.879501 -82.677971 2,950 95 228 -768
2019-09-17 02:15:35 GMT 39.880371 -82.691704 3,100 95 228 -960
2019-09-17 02:15:14 GMT 39.882278 -82.720520 3,475 94 231 -1088
2019-09-17 02:15:03 GMT 39.883118 -82.736145 3,675 94 232 -1152
2019-09-17 02:14:53 GMT 39.883987 -82.750572 3,875 94 233 -1088
2019-09-17 02:14:42 GMT 39.884857 -82.765144 4,075 94 234 -1088
2019-09-17 02:14:32 GMT 39.885536 -82.778870 4,250 94 235 -1024
2019-09-17 02:14:22 GMT 39.886375 -82.794312 4,425 94 237 -1024
2019-09-17 02:14:11 GMT 39.887238 -82.808914 4,600 93 238 -1088
2019-09-17 02:14:01 GMT 39.887924 -82.823715 4,775 93 239 -1088
2019-09-17 02:13:51 GMT 39.888798 -82.838440 4,975 93 240 -1088
2019-09-17 02:13:47 GMT 39.888977 -82.843422 5,025 93 241 -1024
2019-09-17 02:13:41 GMT 39.889481 -82.853928 5,150 93 242 -960
2019-09-17 02:13:30 GMT 39.890167 -82.869034 5,325 93 244 -1024
2019-09-17 02:13:20 GMT 39.890846 -82.884094 5,500 93 245 -1088
2019-09-17 02:13:09 GMT 39.891544 -82.899902 5,700 93 246 -1088
2019-09-17 02:12:59 GMT 39.892227 -82.915192 5,875 93 248 -1024
2019-09-17 02:12:49 GMT 39.892754 -82.930481 6,050 92 249 -1152
2019-09-17 02:12:38 GMT 39.893417 -82.946243 6,225 92 250 -1216
2019-09-17 02:12:35 GMT 39.893593 -82.951904 6,350 92 250 -1216
2019-09-17 02:12:28 GMT 39.893917 -82.961548 6,475 92 250 -1216
2019-09-17 02:12:20 GMT 39.894287 -82.972694 6,625 92 250 -1280
2019-09-17 02:12:17 GMT 39.894470 -82.977524 6,700 92 250 -1280
2019-09-17 02:12:09 GMT 39.894791 -82.991379 6,900 92 249 -1280
2019-09-17 02:12:06 GMT 39.894974 -82.993828 6,925 92 249 -1216
2019-09-17 02:12:03 GMT 39.895126 -83.000000 7,000 92 250 -1024
2019-09-17 02:11:58 GMT 39.895313 -83.006714 7,075 92 251 -896
2019-09-17 02:11:52 GMT 39.895981 -83.026428 7,225 93 256 -1024
2019-09-17 02:11:45 GMT 39.895981 -83.026428 7,275 92 254 -960
2019-09-17 02:11:35 GMT 39.896664 -83.040161 7,575 93 258 -768
2019-09-17 02:11:25 GMT 39.897362 -83.056274 7,575 93 258 -768
2019-09-17 02:11:19 GMT 39.897903 -83.067268 7,675 93 261 -704
2019-09-17 02:11:14 GMT 39.898224 -83.072945 7,700 93 262 -704
2019-09-17 02:11:05 GMT 39.899086 -83.089783 7,825 94 266 -704
2019-09-17 02:10:58 GMT 39.899963 -83.106079 7,925 94 269 -768
2019-09-17 02:10:54 GMT 39.899963 -83.106079 7,950 94 270 -704
2019-09-17 02:10:43 GMT 39.900993 -83.122742 8,075 94 274 -704
2019-09-17 02:10:33 GMT 39.902023 -83.141068 8,225 94 277 -896
2019-09-17 02:10:22 GMT 39.903183 -83.158752 8,400 94 280 -1088
2019-09-17 02:10:11 GMT 39.904392 -83.177002 8,600 94 282 -1088
2019-09-17 02:10:01 GMT 39.905415 -83.193115 8,775 94 283 -960
2019-09-17 02:09:51 GMT 39.906647 -83.211105 8,950 95 283 -960
2019-09-17 02:09:41 GMT 39.907837 -83.228455 9,100 95 283 -832
2019-09-17 02:09:31 GMT 39.909027 -83.246513 9,225 95 284 -640
2019-09-17 02:09:20 GMT 39.910400 -83.264191 9,325 95 285 -576
2019-09-17 02:09:10 GMT 39.911636 -83.282036 9,425 95 286 -512
2019-09-17 02:08:59 GMT 39.912819 -83.299561 9,500 94 287 -448
2019-09-17 02:08:49 GMT 39.913841 -83.317383 9,600 93 287 -512
2019-09-17 02:08:38 GMT 39.913841 -83.335388 9,700 86 285 -640
2019-09-17 02:08:28 GMT 39.912121 -83.354309 9,825 77 282 -640
2019-09-17 02:08:20 GMT 39.909210 -83.365456 9,875 65 279 -384
2019-09-17 02:08:16 GMT 39.906647 -83.371300 9,900 58 277 -256
2019-09-17 02:08:12 GMT 39.902531 -83.378479 9,900 43 276 0
2019-09-17 02:08:05 GMT 39.897537 -83.384682 9,900 38 275 0
2019-09-17 02:07:59 GMT 39.891037 -83.390167 9,900 26 275 0
2019-09-17 02:07:55 GMT 39.886189 -83.392944 9,900 21 274 0
2019-09-17 02:07:50 GMT 39.880371 -83.395142 9,900 6 274 64
2019-09-17 02:07:46 GMT 39.873341 -83.396179 9,900 2 274 64
2019-09-17 02:07:41 GMT 39.867149 -83.395813 9,900 353 275 0
2019-09-17 02:07:35 GMT 39.860962 -83.394295 9,900 344 274 -64
2019-09-17 02:07:30 GMT 39.854115 -83.390686 9,900 334 274 0
2019-09-17 02:07:26 GMT 39.849838 -83.387779 9,900 320 276 0
2019-09-17 02:07:18 GMT 39.842430 -83.381226 9,900 321 275 0
2019-09-17 02:07:14 GMT 39.838303 -83.376617 9,900 319 275 0
2019-09-17 02:07:08 GMT 39.832672 -83.369034 9,900 312 276 0
2019-09-17 02:07:04 GMT 39.829376 -83.364082 9,900 308 277 0
2019-09-17 02:06:54 GMT 39.822372 -83.349991 9,900 298 278 0
2019-09-17 02:06:44 GMT 39.817200 -83.333206 9,900 287 280 64
2019-09-17 02:06:32 GMT 39.814453 -83.315002 9,900 277 282 -64
2019-09-17 02:06:23 GMT 39.814270 -83.298340 9,900 270 282 0
2019-09-17 02:06:12 GMT 39.814453 -83.281502 9,900 269 280 0
2019-09-17 02:06:01 GMT 39.814777 -83.263000 9,900 269 279 64
2019-09-17 02:05:51 GMT 39.814964 -83.246338 9,900 269 278 0
2019-09-17 02:05:41 GMT 39.815323 -83.229317 9,900 269 278 0
2019-09-17 02:05:31 GMT 39.815643 -83.210091 9,900 269 277 0
2019-09-17 02:05:20 GMT 39.816010 -83.194145 9,900 269 278 0
2019-09-17 02:05:09 GMT 39.816513 -83.176651 9,900 268 279 0
2019-09-17 02:04:57 GMT 39.816879 -83.156532 9,900 269 282 0
2019-09-17 02:04:48 GMT 39.817200 -83.141296 9,875 269 287 64
2019-09-17 02:04:38 GMT 39.817528 -83.123413 9,875 270 289 -320
2019-09-17 02:04:28 GMT 39.817703 -83.106438 9,925 270 290 -384
2019-09-17 02:04:17 GMT 39.818039 -83.085144 10,000 270 291 -448
2019-09-17 02:04:08 GMT 39.818226 -83.069885 10,075 270 292 -384
2019-09-17 02:04:04 GMT 39.818253 -83.062492 10,100 270 292 -448
2019-09-17 02:03:55 GMT 39.818390 -83.049057 10,150 269 292 -448
2019-09-17 02:03:47 GMT 39.818737 -83.033997 10,225 269 293 -512
2019-09-17 02:03:35 GMT 39.819248 -83.013733 10,325 269 292 -640
2019-09-17 02:03:30 GMT 39.819435 -83.003784 10,400 269 292 -768
2019-09-17 02:03:25 GMT 39.819946 -82.976151 10,500 269 292 -768
2019-09-17 02:03:14 GMT 39.819946 -82.976151 10,675 269 291 -768
2019-09-17 02:03:09 GMT 39.820133 -82.967346 10,650 269 291 -768
2019-09-17 02:03:05 GMT 39.820271 -82.959106 10,725 270 291 -704
2019-09-17 02:02:56 GMT 39.820450 -82.946060 10,800 269 291 -704
2019-09-17 02:02:53 GMT 39.820450 -82.939072 10,850 269 292 -640
2019-09-17 02:02:48 GMT 39.820644 -82.930298 10,900 269 292 -640
2019-09-17 02:02:45 GMT 39.820816 -82.925163 10,925 269 292 -640
2019-09-17 02:02:42 GMT 39.820816 -82.918777 10,975 269 293 -640
2019-09-17 02:02:37 GMT 39.820999 -82.912445 11,000 269 293 -576
2019-09-17 02:02:34 GMT 39.820999 -82.906113 11,050 269 294 -576
2019-09-17 02:02:30 GMT 39.821136 -82.900444 11,075 269 294 -576
2019-09-17 02:02:21 GMT 39.821320 -82.881393 11,175 269 296 -576
2019-09-17 02:02:14 GMT 39.821503 -82.870049 11,250 269 296 -576
2019-09-17 02:02:10 GMT 39.821686 -82.862167 11,325 269 297 -640
2019-09-17 02:02:00 GMT 39.822006 -82.843597 11,375 269 297 -640
2019-09-17 02:01:52 GMT 39.822182 -82.832642 11,450 269 298 -640
2019-09-17 02:01:49 GMT 39.822369 -82.824036 11,500 269 299 -640
2019-09-17 02:01:40 GMT 39.822510 -82.807716 11,600 269 299 -640
2019-09-17 02:01:31 GMT 39.822880 -82.795227 11,675 269 300 -640
2019-09-17 02:01:28 GMT 39.822876 -82.786942 11,725 269 300 -640
2019-09-17 02:01:22 GMT 39.823204 -82.771362 11,825 270 301 -704
2019-09-17 02:01:18 GMT 39.823204 -82.763428 11,875 270 302 -640
2019-09-17 02:01:11 GMT 39.823391 -82.757629 11,900 270 301 -640
2019-09-17 02:01:08 GMT 39.823380 -82.752304 11,950 270 302 -640
2019-09-17 02:00:58 GMT 39.823715 -82.732361 12,050 269 303 -576
2019-09-17 02:00:50 GMT 39.823902 -82.720032 12,125 269 303 -576
2019-09-17 02:00:46 GMT 39.823902 -82.712646 12,175 269 303 -640
2019-09-17 02:00:40 GMT 39.824066 -82.701317 12,250 270 304 -704
2019-09-17 02:00:37 GMT 39.824066 -82.694092 12,300 270 304 -704
2019-09-17 02:00:30 GMT 39.824249 -82.682388 12,375 270 304 -704
2019-09-17 02:00:25 GMT 39.824432 -82.675041 12,425 269 305 -704
2019-09-17 02:00:19 GMT 39.824570 -82.662682 12,500 270 305 -704
2019-09-17 02:00:16 GMT 39.824600 -82.656311 12,525 269 305 -640
2019-09-17 02:00:09 GMT 39.824741 -82.644653 12,600 269 306 -640
2019-09-17 02:00:03 GMT 39.824936 -82.634682 12,675 269 306 -640
2019-09-17 01:59:58 GMT 39.825119 -82.625252 12,725 270 306 -640
2019-09-17 01:59:55 GMT 39.825119 -82.617188 12,775 270 307 -640
2019-09-17 01:59:47 GMT 39.825256 -82.606026 12,825 270 307 -704
2019-09-17 01:59:43 GMT 39.825439 -82.597961 12,875 269 307 -640
2019-09-17 01:59:37 GMT 39.825623 -82.586800 12,950 269 308 -640
2019-09-17 01:59:34 GMT 39.825764 -82.578369 13,000 269 308 -704
2019-09-17 01:59:27 GMT 39.825951 -82.567932 13,050 269 309 -704
2019-09-17 01:59:21 GMT 39.826138 -82.556091 13,150 270 309 -832
2019-09-17 01:59:16 GMT 39.826126 -82.548347 13,200 269 309 -896
2019-09-17 01:59:11 GMT 39.826279 -82.536011 13,300 269 309 -960
2019-09-17 01:59:06 GMT 39.826492 -82.528282 13,375 270 309 -960
2019-09-17 01:59:02 GMT 39.826492 -82.520882 13,425 270 309 -896
2019-09-17 01:58:54 GMT 39.826630 -82.506790 13,550 270 309 -896
2019-09-17 01:58:47 GMT 39.826813 -82.494125 13,650 270 309 -832
2019-09-17 01:58:43 GMT 39.826977 -82.485535 13,700 270 309 -768
2019-09-17 01:58:40 GMT 39.826977 -82.480347 13,725 270 309 -768
2019-09-17 01:58:35 GMT 39.827164 -82.471436 13,800 270 310 -832
2019-09-17 01:58:28 GMT 39.827316 -82.457047 13,900 269 310 -832
2019-09-17 01:58:22 GMT 39.827488 -82.447571 13,975 269 310 -832
2019-09-17 01:58:18 GMT 39.827499 -82.439194 14,050 269 310 -896
2019-09-17 01:58:14 GMT 39.827675 -82.431946 14,100 269 310 -896
2019-09-17 01:58:09 GMT 39.827862 -82.423035 14,175 269 310 -896
2019-09-17 01:58:02 GMT 39.827999 -82.408936 14,275 269 310 -896
2019-09-17 01:57:54 GMT 39.828186 -82.394356 14,400 269 310 -896
2019-09-17 01:57:42 GMT 39.828552 -82.373581 14,575 269 310 -896
2019-09-17 01:57:32 GMT 39.828873 -82.354889 14,725 269 310 -896
2019-09-17 01:57:22 GMT 39.829056 -82.335663 14,875 270 311 -896
2019-09-17 01:57:11 GMT 39.829208 -82.315063 15,025 270 311 -896
2019-09-17 01:57:01 GMT 39.829376 -82.294640 15,200 270 311 -832
2019-09-17 01:56:51 GMT 39.829395 -82.276978 15,325 270 311 -832
2019-09-17 01:56:43 GMT 39.829582 -82.262024 15,425 270 311 -832
2019-09-17 01:56:39 GMT 39.829723 -82.254639 15,475 270 311 -832
2019-09-17 01:56:29 GMT 39.829906 -82.236633 15,625 270 311 -896
2019-09-17 01:56:19 GMT 39.830063 -82.217560 15,775 270 310 -960
2019-09-17 01:56:09 GMT 39.830246 -82.199707 15,900 270 310 -768
2019-09-17 01:55:59 GMT 39.830235 -82.179993 16,000 270 312 -192
2019-09-17 01:55:49 GMT 39.830421 -82.160400 16,000 269 317 64
2019-09-17 01:55:39 GMT 39.830746 -82.142029 15,975 269 321 192
2019-09-17 01:55:34 GMT 39.830933 -82.133789 15,975 269 325 64
2019-09-17 01:55:26 GMT 39.831116 -82.118149 16,000 270 329 -256
2019-09-17 01:55:17 GMT 39.831257 -82.098755 16,100 270 332 -1024
2019-09-17 01:55:06 GMT 39.831444 -82.078003 16,275 270 333 -960
2019-09-17 01:54:55 GMT 39.831631 -82.056396 16,475 270 334 -1088
2019-09-17 01:54:45 GMT 39.831619 -82.035927 16,650 270 335 -1152
2019-09-17 01:54:37 GMT 39.831985 -82.016525 16,825 269 336 -1216
2019-09-17 01:54:26 GMT 39.832123 -81.996460 17,050 270 335 -1472
2019-09-17 01:54:14 GMT 39.832329 -81.974304 17,350 270 335 -1600
2019-09-17 01:54:04 GMT 39.832672 -81.953712 17,625 270 336 -1600
2019-09-17 01:53:52 GMT 39.832809 -81.929527 17,925 269 336 -1600
2019-09-17 01:53:43 GMT 39.833168 -81.909790 18,200 269 337 -1536
2019-09-17 01:53:32 GMT 39.833359 -81.887436 18,475 270 338 -1664
2019-09-17 01:53:22 GMT 39.833679 -81.864258 18,825 269 338 -1792
2019-09-17 01:53:11 GMT 39.833862 -81.846054 19,050 269 338 -1728
2019-09-17 01:53:02 GMT 39.834183 -81.827370 19,525 269 339 -1536
2019-09-17 01:52:51 GMT 39.834888 -81.783752 19,650 269 340 -1472
2019-09-17 01:52:41 GMT 39.834888 -81.783752 19,850 269 342 -1280
2019-09-17 01:52:31 GMT 39.835236 -81.761986 20,025 270 347 -640
2019-09-17 01:52:19 GMT 39.834702 -81.717834 20,650 271 352 -1728
2019-09-17 01:52:10 GMT 39.834702 -81.717834 20,500 271 352 -1728
2019-09-17 01:51:57 GMT 39.834377 -81.693298 20,825 271 353 -1664
2019-09-17 01:51:48 GMT 39.834045 -81.673378 21,075 272 354 -1536
2019-09-17 01:51:38 GMT 39.833679 -81.650757 21,325 271 358 -1024
2019-09-17 01:51:27 GMT 39.833492 -81.627380 21,500 271 363 -1152
2019-09-17 01:51:16 GMT 39.833168 -81.602844 21,775 272 365 -1664
2019-09-17 01:51:06 GMT 39.832657 -81.580872 22,050 272 367 -1728
2019-09-17 01:50:55 GMT 39.832306 -81.557541 22,375 271 368 -1856
2019-09-17 01:50:44 GMT 39.831959 -81.531433 22,750 272 368 -1856
2019-09-17 01:50:34 GMT 39.831619 -81.510674 23,025 271 369 -1792
2019-09-17 01:50:27 GMT 39.831444 -81.496094 23,225 271 370 -1728
2019-09-17 01:50:23 GMT 39.831299 -81.486794 23,325 271 371 -1728
2019-09-17 01:50:15 GMT 39.831116 -81.467026 23,575 272 372 -1664
2019-09-17 01:50:12 GMT 39.831120 -81.462219 23,650 272 372 -1664
2019-09-17 01:50:01 GMT 39.830608 -81.438904 23,950 272 374 -1728
2019-09-17 01:49:50 GMT 39.830246 -81.413345 24,275 271 375 -1792
2019-09-17 01:49:44 GMT 39.830093 -81.398376 24,475 271 376 -1792
2019-09-17 01:49:41 GMT 39.830063 -81.390656 24,575 271 376 -1792
2019-09-17 01:49:30 GMT 39.829742 -81.367134 24,900 271 378 -1728
2019-09-17 01:49:18 GMT 39.829559 -81.341759 25,200 271 379 -1728
2019-09-17 01:49:09 GMT 39.829239 -81.318893 25,500 271 381 -1728
2019-09-17 01:48:57 GMT 39.829056 -81.294174 25,825 271 383 -1792
2019-09-17 01:48:53 GMT 39.829025 -81.282715 25,975 271 383 -1792
2019-09-17 01:48:48 GMT 39.829025 -81.269836 26,125 271 384 -1728
2019-09-17 01:48:42 GMT 39.828884 -81.255920 26,300 271 386 -1664
2019-09-17 01:48:36 GMT 39.828873 -81.245270 26,425 271 387 -1536
2019-09-17 01:48:30 GMT 39.828884 -81.229980 27,075 270 389 -1344
2019-09-17 01:48:26 GMT 39.829056 -81.220016 26,675 270 391 -1216
2019-09-17 01:48:16 GMT 39.829395 -81.195129 26,850 269 397 -1088
2019-09-17 01:48:05 GMT 39.829742 -81.170578 27,050 269 403 -1152
2019-09-17 01:47:58 GMT 39.829926 -81.154991 27,150 270 406 -1088
2019-09-17 01:47:55 GMT 39.830063 -81.144302 27,225 270 409 -896
2019-09-17 01:47:49 GMT 39.830235 -81.131958 27,300 270 413 -704
2019-09-17 01:47:43 GMT 39.830429 -81.117554 27,350 270 417 -704
2019-09-17 01:47:38 GMT 39.830612 -81.104477 27,425 270 422 -704
2019-09-17 01:47:33 GMT 39.830750 -81.091286 27,475 270 425 -640
2019-09-17 01:47:28 GMT 39.830933 -81.077904 27,525 269 429 -640
2019-09-17 01:47:23 GMT 39.831120 -81.062988 27,600 269 434 -768
2019-09-17 01:47:18 GMT 39.831257 -81.052490 27,675 269 437 -960
2019-09-17 01:47:11 GMT 39.831802 -81.035156 27,825 268 440 -1792
2019-09-17 01:47:07 GMT 39.832306 -81.024529 27,975 266 442 -2368
2019-09-17 01:47:01 GMT 39.833679 -81.008179 28,250 262 443 -2752
2019-09-17 01:46:54 GMT 39.835915 -80.990356 28,575 258 444 -2816
2019-09-17 01:46:50 GMT 39.837635 -80.979858 28,750 258 444 -2816
2019-09-17 01:46:40 GMT 39.843128 -80.952942 29,250 253 445 -2880
2019-09-17 01:46:30 GMT 39.850670 -80.925781 29,775 248 447 -2944
2019-09-17 01:46:18 GMT 39.859936 -80.899353 30,300 245 446 -2944
2019-09-17 01:46:07 GMT 39.869202 -80.873764 30,850 245 443 -3072
2019-09-17 01:45:58 GMT 39.878494 -80.848923 31,375 245 441 -3136
2019-09-17 01:45:47 GMT 39.887604 -80.824203 31,925 245 437 -3136
2019-09-17 01:45:42 GMT 39.891861 -80.812859 32,425 245 436 -3072
2019-09-17 01:45:36 GMT 39.900436 -80.789673 32,650 245 434 -2944
2019-09-17 01:45:24 GMT 39.908524 -80.767723 33,100 245 431 -2816
2019-09-17 01:45:13 GMT 39.917130 -80.744377 33,550 245 429 -2496
2019-09-17 01:45:03 GMT 39.926056 -80.720154 33,950 245 428 -2368
2019-09-17 01:44:52 GMT 39.935120 -80.696106 34,350 244 428 -2048
2019-09-17 01:44:44 GMT 39.941849 -80.678589 34,600 244 428 -1856
2019-09-17 01:44:41 GMT 39.944382 -80.671547 34,675 244 428 -1728
2019-09-17 01:44:34 GMT 39.950245 -80.655754 34,875 245 429 -1280
2019-09-17 01:44:31 GMT 39.953690 -80.646515 34,950 245 429 -1344
2019-09-17 01:44:23 GMT 39.960892 -80.627441 35,125 244 429 -960
2019-09-17 01:44:18 GMT 39.964325 -80.618347 35,175 244 429 -896
2019-09-17 01:44:12 GMT 39.970322 -80.602539 35,300 244 429 -768
2019-09-17 01:44:08 GMT 39.974079 -80.592957 35,325 245 429 -576
2019-09-17 01:44:01 GMT 39.979431 -80.578552 35,400 245 428 -576
2019-09-17 01:43:57 GMT 39.983871 -80.565308 35,450 248 427 -512
2019-09-17 01:43:49 GMT 39.990234 -80.542641 35,525 252 425 -576
2019-09-17 01:43:40 GMT 39.994377 -80.524101 35,600 256 422 -704
2019-09-17 01:43:36 GMT 39.995541 -80.518112 35,625 257 422 -704
2019-09-17 01:43:30 GMT 39.998287 -80.500259 35,750 261 419 -832
2019-09-17 01:43:27 GMT 39.999172 -80.492332 35,775 262 418 -832
2019-09-17 01:43:18 GMT 40.001038 -80.470886 35,875 265 415 -704
2019-09-17 01:43:09 GMT 40.002430 -80.447578 35,975 267 413 -384
2019-09-17 01:43:06 GMT 40.002758 -80.439461 36,000 268 413 -192
2019-09-17 01:42:59 GMT 40.002960 -80.426086 36,000 270 413 0
2019-09-17 01:42:56 GMT 40.002941 -80.416679 36,000 270 413 0
2019-09-17 01:42:53 GMT 40.002941 -80.411682 36,000 271 413 0
2019-09-17 01:42:47 GMT 40.002941 -80.394829 36,000 271 414 0
2019-09-17 01:42:44 GMT 40.002777 -80.386292 36,000 271 414 0
2019-09-17 01:42:36 GMT 40.002594 -80.366333 36,000 271 414 0
2019-09-17 01:42:26 GMT 40.002274 -80.334412 36,000 271 415 0
2019-09-17 01:42:22 GMT 40.002274 -80.334412 36,000 271 415 0
2019-09-17 01:42:18 GMT 40.002060 -80.319984 36,000 271 417 0
2019-09-17 01:42:13 GMT 40.002090 -80.308533 36,000 271 417 64
2019-09-17 01:42:04 GMT 40.002060 -80.284843 36,000 270 418 0
2019-09-17 01:42:01 GMT 40.002060 -80.280846 36,000 270 419 0
2019-09-17 01:41:56 GMT 40.002060 -80.264740 36,000 271 420 0
2019-09-17 01:41:52 GMT 40.002090 -80.255127 36,000 271 420 0
2019-09-17 01:41:44 GMT 40.001919 -80.237457 36,000 271 421 0
2019-09-17 01:41:41 GMT 40.001724 -80.228882 36,000 271 421 0
2019-09-17 01:41:34 GMT 40.001732 -80.214111 36,000 271 422 0
2019-09-17 01:41:31 GMT 40.001549 -80.201881 36,000 271 422 0
2019-09-17 01:41:25 GMT 40.001549 -80.186653 36,000 271 423 0
2019-09-17 01:41:22 GMT 40.001408 -80.180595 36,000 271 423 0
2019-09-17 01:41:19 GMT 40.001404 -80.172913 36,000 271 424 0
2019-09-17 01:41:14 GMT 40.001221 -80.159187 36,000 271 424 0
2019-09-17 01:41:09 GMT 40.001221 -80.148376 36,000 271 425 0
2019-09-17 01:41:01 GMT 40.001038 -80.126892 36,000 271 428 0
2019-09-17 01:40:58 GMT 40.000900 -80.120728 36,000 271 428 0
2019-09-17 01:40:51 GMT 40.000710 -80.103691 36,000 271 430 64
2019-09-17 01:40:48 GMT 40.000710 -80.094269 36,000 271 431 64
2019-09-17 01:40:40 GMT 40.000523 -80.073479 36,000 271 434 0
2019-09-17 01:40:37 GMT 40.000534 -80.066833 36,000 271 435 64
2019-09-17 01:40:29 GMT 40.000198 -80.037773 36,000 271 440 -64
2019-09-17 01:40:20 GMT 40.000214 -80.021301 36,000 271 441 -64
2019-09-17 01:40:17 GMT 40.000031 -80.010681 36,000 271 443 -64
2019-09-17 01:40:10 GMT 39.999847 -79.991638 36,000 271 444 0
2019-09-17 01:40:05 GMT 39.999870 -79.982529 36,000 271 444 0
2019-09-17 01:40:01 GMT 39.999683 -79.967613 36,000 271 445 0
2019-09-17 01:39:57 GMT 39.999664 -79.956238 36,000 271 444 -64
2019-09-17 01:39:47 GMT 39.999313 -79.932213 36,025 271 444 -64
2019-09-17 01:39:44 GMT 39.999313 -79.925850 36,025 271 444 -64
2019-09-17 01:39:38 GMT 39.999161 -79.910400 36,025 271 444 0
2019-09-17 01:39:35 GMT 39.998978 -79.897583 36,025 271 444 0
2019-09-17 01:39:28 GMT 39.998840 -79.881592 36,025 271 443 0
2019-09-17 01:39:23 GMT 39.998798 -79.868172 36,025 271 443 0
2019-09-17 01:39:18 GMT 39.998657 -79.853760 36,025 271 443 0
2019-09-17 01:39:14 GMT 39.998474 -79.842102 36,000 271 443 0
2019-09-17 01:39:07 GMT 39.998287 -79.825600 36,000 271 443 0
2019-09-17 01:39:02 GMT 39.998154 -79.812439 36,000 271 442 0
2019-09-17 01:38:56 GMT 39.998150 -79.796944 36,000 271 442 0
2019-09-17 01:38:51 GMT 39.997963 -79.784088 36,000 271 443 0
2019-09-17 01:38:46 GMT 39.997776 -79.767113 36,000 271 443 0
2019-09-17 01:38:39 GMT 39.997635 -79.751129 36,000 271 443 0
2019-09-17 01:38:31 GMT 39.997265 -79.729843 36,000 271 443 0
2019-09-17 01:38:26 GMT 39.997265 -79.717110 36,000 271 443 0
2019-09-17 01:38:23 GMT 39.997101 -79.710083 36,000 271 443 0
2019-09-17 01:38:18 GMT 39.996918 -79.695312 36,025 271 443 -64
2019-09-17 01:38:09 GMT 39.996754 -79.672356 36,025 271 443 0
2019-09-17 01:38:03 GMT 39.996567 -79.655312 36,025 271 443 0
2019-09-17 01:37:58 GMT 39.996426 -79.643639 36,025 271 443 0
2019-09-17 01:37:51 GMT 39.996239 -79.622353 36,025 271 442 0
2019-09-17 01:37:48 GMT 39.996052 -79.617043 36,025 271 442 0
2019-09-17 01:37:41 GMT 39.995914 -79.599007 36,000 271 442 0
2019-09-17 01:37:38 GMT 39.995728 -79.586143 36,000 271 442 0
2019-09-17 01:37:28 GMT 39.995407 -79.562317 36,000 271 442 64
2019-09-17 01:37:20 GMT 39.995216 -79.539452 36,000 271 442 0
2019-09-17 01:37:17 GMT 39.995041 -79.534668 36,000 271 442 0
2019-09-17 01:37:09 GMT 39.994888 -79.513863 36,000 271 443 0
2019-09-17 01:37:05 GMT 39.994537 -79.485596 36,000 272 443 0
2019-09-17 01:37:00 GMT 39.994537 -79.485596 36,000 272 443 0
2019-09-17 01:36:54 GMT 39.994354 -79.471863 36,000 272 443 0
2019-09-17 01:36:48 GMT 39.994003 -79.456367 36,000 271 443 0
2019-09-17 01:36:44 GMT 39.994003 -79.445763 36,000 271 443 0
2019-09-17 01:36:38 GMT 39.993820 -79.429779 36,000 271 443 -64
2019-09-17 01:36:35 GMT 39.993668 -79.419678 36,000 271 443 -64
2019-09-17 01:36:23 GMT 39.993305 -79.391518 36,025 271 443 0
2019-09-17 01:36:17 GMT 39.992981 -79.373840 36,000 272 443 64
2019-09-17 01:36:11 GMT 39.992794 -79.357307 36,000 272 443 0
2019-09-17 01:36:05 GMT 39.992661 -79.340881 36,000 272 443 0
2019-09-17 01:36:02 GMT 39.992477 -79.335510 36,000 272 443 0
2019-09-17 01:35:59 GMT 39.992470 -79.327660 36,000 272 443 0
2019-09-17 01:35:55 GMT 39.992283 -79.315796 36,000 272 443 64
2019-09-17 01:35:50 GMT 39.992111 -79.302551 36,000 272 443 64
2019-09-17 01:35:45 GMT 39.991959 -79.289207 35,975 272 443 0
2019-09-17 01:35:41 GMT 39.991772 -79.278526 36,000 272 443 0
2019-09-17 01:35:38 GMT 39.991608 -79.268433 36,000 272 443 0
2019-09-17 01:35:34 GMT 39.991444 -79.260490 35,975 272 443 0
2019-09-17 01:35:30 GMT 39.991261 -79.249878 35,975 272 443 0
2019-09-17 01:35:24 GMT 39.991074 -79.232712 35,975 272 443 -64
2019-09-17 01:35:19 GMT 39.990921 -79.220520 36,000 272 443 -64
2019-09-17 01:35:14 GMT 39.990738 -79.204529 36,000 272 443 -64
2019-09-17 01:35:08 GMT 39.990601 -79.191711 36,000 272 443 0
2019-09-17 01:35:01 GMT 39.990234 -79.172096 36,000 272 443 -64
2019-09-17 01:34:58 GMT 39.990047 -79.164551 36,025 272 443 0
2019-09-17 01:34:52 GMT 39.989914 -79.147034 36,000 272 443 0
2019-09-17 01:34:47 GMT 39.989723 -79.133652 36,000 272 443 0
2019-09-17 01:34:42 GMT 39.989395 -79.118729 36,000 272 443 0
2019-09-17 01:34:38 GMT 39.989365 -79.109802 36,000 272 443 0
2019-09-17 01:34:30 GMT 39.989025 -79.090080 36,000 272 443 0
2019-09-17 01:34:27 GMT 39.988884 -79.081467 36,000 272 443 0
2019-09-17 01:34:20 GMT 39.988541 -79.059692 36,000 272 443 0
2019-09-17 01:34:17 GMT 39.988358 -79.053345 36,000 272 443 0
2019-09-17 01:34:05 GMT 39.987854 -79.023438 36,000 272 443 0
2019-09-17 01:33:59 GMT 39.987671 -79.005432 36,000 272 443 0
2019-09-17 01:33:54 GMT 39.987305 -78.990479 36,025 272 443 -64
2019-09-17 01:33:45 GMT 39.986977 -78.968666 36,025 272 442 -64
2019-09-17 01:33:40 GMT 39.986790 -78.956993 36,025 272 442 -64
2019-09-17 01:33:34 GMT 39.986465 -78.940018 36,025 272 442 0
2019-09-17 01:33:28 GMT 39.986137 -78.920784 36,025 272 442 0
2019-09-17 01:33:22 GMT 39.985794 -78.890564 36,000 272 442 64
2019-09-17 01:33:15 GMT 39.985794 -78.890564 36,000 272 442 0
2019-09-17 01:33:11 GMT 39.985439 -78.879402 36,000 272 442 0
2019-09-17 01:33:06 GMT 39.985245 -78.864990 36,000 272 442 0
2019-09-17 01:32:59 GMT 39.984924 -78.846985 36,000 272 442 0
2019-09-17 01:32:54 GMT 39.984741 -78.831528 36,000 272 442 0
2019-09-17 01:32:51 GMT 39.984230 -78.810242 36,000 272 443 0
2019-09-17 01:32:45 GMT 39.984230 -78.810242 36,000 272 442 0
2019-09-17 01:32:41 GMT 39.984043 -78.798569 36,000 272 443 0
2019-09-17 01:32:34 GMT 39.983734 -78.782104 36,000 272 443 0
2019-09-17 01:32:31 GMT 39.983551 -78.770447 36,000 272 443 0
2019-09-17 01:32:27 GMT 39.983368 -78.759766 36,000 272 443 0
2019-09-17 01:32:24 GMT 39.983204 -78.750687 36,000 272 443 0
2019-09-17 01:32:18 GMT 39.983047 -78.739502 36,000 272 443 64
2019-09-17 01:32:15 GMT 39.982864 -78.728882 36,000 272 443 0
2019-09-17 01:32:12 GMT 39.982681 -78.723572 36,000 272 443 0
2019-09-17 01:32:04 GMT 39.982319 -78.701752 36,000 272 443 0
2019-09-17 01:31:58 GMT 39.981812 -78.682007 36,000 272 443 64
2019-09-17 01:31:55 GMT 39.981808 -78.673973 36,000 272 443 0
2019-09-17 01:31:50 GMT 39.981491 -78.655396 36,000 272 443 0
2019-09-17 01:31:47 GMT 39.981491 -78.655396 36,000 272 444 0
2019-09-17 01:31:41 GMT 39.981125 -78.640503 36,025 272 444 -64
2019-09-17 01:31:37 GMT 39.980968 -78.628090 36,000 272 444 -64
2019-09-17 01:31:31 GMT 39.980644 -78.611107 36,000 272 444 0
2019-09-17 01:31:24 GMT 39.980301 -78.592407 36,025 272 444 0
2019-09-17 01:31:20 GMT 39.980087 -78.584328 36,025 272 444 0
2019-09-17 01:31:17 GMT 39.979752 -78.572144 36,000 272 444 64
2019-09-17 01:31:13 GMT 39.979752 -78.564575 36,000 272 444 64
2019-09-17 01:31:09 GMT 39.979435 -78.553429 36,000 272 444 0
2019-09-17 01:31:05 GMT 39.979248 -78.542633 36,000 272 444 0
2019-09-17 01:31:02 GMT 39.979065 -78.535767 36,000 272 444 0
2019-09-17 01:30:59 GMT 39.978924 -78.524590 36,000 272 445 0
2019-09-17 01:30:54 GMT 39.978550 -78.513794 36,000 272 445 -64
2019-09-17 01:30:51 GMT 39.978378 -78.506897 36,000 272 445 -64
2019-09-17 01:30:48 GMT 39.978378 -78.499390 36,025 272 445 -64
2019-09-17 01:30:42 GMT 39.977875 -78.482361 36,025 272 444 0
2019-09-17 01:30:37 GMT 39.977554 -78.465210 36,025 272 444 0
2019-09-17 01:30:32 GMT 39.977371 -78.454590 36,025 272 444 0
2019-09-17 01:30:26 GMT 39.977005 -78.439636 36,000 272 444 0
2019-09-17 01:30:20 GMT 39.976685 -78.423645 36,000 272 444 0
2019-09-17 01:30:16 GMT 39.976501 -78.412483 36,000 272 444 0
2019-09-17 01:30:12 GMT 39.976181 -78.400146 36,000 272 444 0
2019-09-17 01:30:06 GMT 39.975990 -78.383644 36,000 272 444 0
2019-09-17 01:30:03 GMT 39.975803 -78.379402 36,000 272 444 0
2019-09-17 01:30:00 GMT 39.975632 -78.371338 36,000 272 444 0
2019-09-17 01:29:57 GMT 39.975475 -78.360176 36,000 272 444 0
2019-09-17 01:29:54 GMT 39.975292 -78.354805 36,000 272 444 0
2019-09-17 01:29:49 GMT 39.974964 -78.342133 36,000 272 444 0
2019-09-17 01:29:46 GMT 39.974808 -78.332031 36,000 272 444 0
2019-09-17 01:29:41 GMT 39.974442 -78.315857 36,000 272 444 0
2019-09-17 01:29:36 GMT 39.974121 -78.303162 36,000 272 443 -64
2019-09-17 01:29:33 GMT 39.974079 -78.297310 36,025 272 443 0
2019-09-17 01:29:29 GMT 39.973755 -78.288208 36,025 272 443 -64
2019-09-17 01:29:25 GMT 39.973568 -78.276024 36,025 272 443 -64
2019-09-17 01:29:20 GMT 39.973244 -78.263168 36,025 272 443 0
2019-09-17 01:29:15 GMT 39.972885 -78.246704 36,025 272 443 0
2019-09-17 01:29:12 GMT 39.972748 -78.241394 36,025 272 443 0
2019-09-17 01:29:07 GMT 39.972382 -78.224365 36,025 272 443 0
2019-09-17 01:29:04 GMT 39.972382 -78.221130 36,025 272 443 0
2019-09-17 01:28:59 GMT 39.972031 -78.207741 36,025 272 443 0
2019-09-17 01:28:53 GMT 39.971695 -78.192261 36,025 272 443 0
2019-09-17 01:28:50 GMT 39.971512 -78.184875 36,000 272 443 0
2019-09-17 01:28:47 GMT 39.971191 -78.173218 36,000 272 444 0
2019-09-17 01:28:43 GMT 39.971008 -78.164101 36,000 272 443 0
2019-09-17 01:28:38 GMT 39.970688 -78.150757 36,000 272 443 0
2019-09-17 01:28:33 GMT 39.970310 -78.136452 36,000 272 443 0
2019-09-17 01:28:28 GMT 39.970139 -78.125122 36,000 272 443 0
2019-09-17 01:28:24 GMT 39.969799 -78.110924 36,000 272 443 0
2019-09-17 01:28:18 GMT 39.969288 -78.094749 36,000 272 444 0
2019-09-17 01:28:12 GMT 39.968773 -78.073463 36,000 272 444 0
2019-09-17 01:28:09 GMT 39.968590 -78.062859 36,000 272 444 0
2019-09-17 01:28:01 GMT 39.968445 -78.053711 36,000 272 444 0
2019-09-17 01:27:57 GMT 39.967937 -78.028648 36,000 272 444 0
2019-09-17 01:27:53 GMT 39.967937 -78.028648 36,000 272 444 0
2019-09-17 01:27:50 GMT 39.967758 -78.024902 36,000 272 444 0
2019-09-17 01:27:47 GMT 39.967392 -78.013245 36,000 272 444 0
2019-09-17 01:27:40 GMT 39.967052 -77.995689 36,000 272 444 0
2019-09-17 01:27:37 GMT 39.966911 -77.988136 36,000 273 443 0
2019-09-17 01:27:33 GMT 39.966537 -77.979584 36,000 273 443 0
2019-09-17 01:27:30 GMT 39.966385 -77.970642 36,000 273 443 0
2019-09-17 01:27:25 GMT 39.965881 -77.956726 36,025 273 443 -64
2019-09-17 01:27:22 GMT 39.965702 -77.946625 36,000 273 443 -64
2019-09-17 01:27:17 GMT 39.965332 -77.935486 36,000 273 443 0
2019-09-17 01:27:14 GMT 39.965191 -77.927399 36,025 272 443 0
2019-09-17 01:27:11 GMT 39.965004 -77.920036 36,025 272 443 0
2019-09-17 01:27:07 GMT 39.964676 -77.910423 36,000 272 443 0
2019-09-17 01:27:04 GMT 39.964508 -77.900269 36,000 272 443 0
2019-09-17 01:26:58 GMT 39.963978 -77.884827 36,000 272 443 0
2019-09-17 01:26:54 GMT 39.963821 -77.875732 36,000 272 443 0
2019-09-17 01:26:50 GMT 39.963455 -77.863037 36,000 272 443 0
2019-09-17 01:26:47 GMT 39.963272 -77.856689 36,000 272 443 0
2019-09-17 01:26:42 GMT 39.962952 -77.842773 36,000 272 443 0
2019-09-17 01:26:38 GMT 39.962582 -77.831581 36,000 273 443 0
2019-09-17 01:26:34 GMT 39.962070 -77.813606 36,000 272 443 0
2019-09-17 01:26:26 GMT 39.961761 -77.798157 36,000 273 443 64
2019-09-17 01:26:22 GMT 39.961395 -77.788513 36,000 272 443 0
2019-09-17 01:26:19 GMT 39.961212 -77.781128 36,000 272 443 0
2019-09-17 01:26:16 GMT 39.961075 -77.773560 36,000 272 443 0
2019-09-17 01:26:11 GMT 39.960720 -77.761421 36,000 272 443 0
2019-09-17 01:26:07 GMT 39.960346 -77.748688 36,000 272 443 0
2019-09-17 01:26:04 GMT 39.960205 -77.740601 36,000 272 443 0
2019-09-17 01:26:01 GMT 39.959839 -77.729980 36,000 272 443 0
2019-09-17 01:25:57 GMT 39.959702 -77.721375 36,000 273 447 0
2019-09-17 01:25:52 GMT 39.959335 -77.708679 36,000 272 444 0
2019-09-17 01:25:49 GMT 39.959183 -77.699623 36,000 272 444 0
2019-09-17 01:25:45 GMT 39.958485 -77.674026 36,000 272 444 0
2019-09-17 01:25:40 GMT 39.958485 -77.674026 36,000 273 444 0
2019-09-17 01:25:36 GMT 39.957973 -77.659111 36,000 273 444 0
2019-09-17 01:25:33 GMT 39.957779 -77.651001 36,000 273 444 0
2019-09-17 01:25:26 GMT 39.957458 -77.637146 36,000 273 445 0
2019-09-17 01:25:21 GMT 39.957088 -77.625961 36,000 273 445 0
2019-09-17 01:25:18 GMT 39.956955 -77.618896 36,000 272 445 0
2019-09-17 01:25:15 GMT 39.956577 -77.609795 36,000 272 446 0
2019-09-17 01:25:11 GMT 39.956436 -77.599182 36,000 272 446 0
2019-09-17 01:25:08 GMT 39.956085 -77.588867 36,000 273 446 0
2019-09-17 01:25:05 GMT 39.955925 -77.582016 36,000 273 446 -64
2019-09-17 01:25:01 GMT 39.955738 -77.574463 36,000 273 447 -64
2019-09-17 01:24:58 GMT 39.955399 -77.561096 36,000 273 447 0
2019-09-17 01:24:54 GMT 39.955032 -77.554565 36,000 273 447 0
2019-09-17 01:24:49 GMT 39.954716 -77.538948 36,000 273 447 0
2019-09-17 01:24:43 GMT 39.954342 -77.526024 36,000 273 448 0
2019-09-17 01:24:40 GMT 39.954025 -77.516968 36,000 273 447 -64
2019-09-17 01:24:37 GMT 39.953831 -77.509918 36,000 273 448 0
2019-09-17 01:24:32 GMT 39.953339 -77.493286 36,000 273 448 0
2019-09-17 01:24:29 GMT 39.953156 -77.486755 36,000 273 448 0
2019-09-17 01:24:24 GMT 39.952805 -77.474403 36,000 273 448 0
2019-09-17 01:24:21 GMT 39.952621 -77.466850 36,000 273 449 0
2019-09-17 01:24:18 GMT 39.952286 -77.458740 36,000 273 449 0
2019-09-17 01:24:15 GMT 39.952106 -77.450676 36,000 273 449 0
2019-09-17 01:24:11 GMT 39.951599 -77.436096 36,000 273 449 64
2019-09-17 01:24:08 GMT 39.951462 -77.429565 36,000 273 449 64
2019-09-17 01:24:05 GMT 39.951271 -77.423714 36,000 273 449 64
2019-09-17 01:24:01 GMT 39.950760 -77.408607 36,000 273 449 0
2019-09-17 01:23:58 GMT 39.950592 -77.401611 36,000 273 448 0
2019-09-17 01:23:55 GMT 39.950409 -77.396301 36,000 273 448 0
2019-09-17 01:23:52 GMT 39.950062 -77.387009 36,000 273 445 64
2019-09-17 01:23:49 GMT 39.949875 -77.379646 36,000 273 445 64
2019-09-17 01:23:46 GMT 39.949539 -77.368286 36,025 273 447 -128
2019-09-17 01:23:42 GMT 39.949036 -77.353210 36,025 273 444 448
2019-09-17 01:23:39 GMT 39.949036 -77.353210 36,025 273 445 64
2019-09-17 01:23:34 GMT 39.948711 -77.338753 36,000 273 444 320
2019-09-17 01:23:30 GMT 39.948338 -77.329140 35,925 273 443 640
2019-09-17 01:23:25 GMT 39.947845 -77.314880 35,900 273 442 0
2019-09-17 01:23:21 GMT 39.947498 -77.301491 35,600 273 442 1280
2019-09-17 01:23:16 GMT 39.947159 -77.289307 35,725 273 442 1344
2019-09-17 01:23:13 GMT 39.946976 -77.283997 35,675 273 442 1280
2019-09-17 01:23:09 GMT 39.946289 -77.264412 35,325 273 442 1408
2019-09-17 01:23:06 GMT 39.946289 -77.264412 35,500 273 442 1408
2019-09-17 01:23:03 GMT 39.945965 -77.255859 35,425 273 442 1344
2019-09-17 01:23:00 GMT 39.945778 -77.246437 35,350 273 442 1344
2019-09-17 01:22:54 GMT 39.945282 -77.229919 35,100 273 442 1344
2019-09-17 01:22:49 GMT 39.944733 -77.218262 35,050 273 442 1344
2019-09-17 01:22:45 GMT 39.944412 -77.206421 35,025 273 442 1344
2019-09-17 01:22:42 GMT 39.944229 -77.199036 34,775 273 442 1408
2019-09-17 01:22:39 GMT 39.944046 -77.191650 34,775 273 442 1536
2019-09-17 01:22:35 GMT 39.943729 -77.182579 34,800 273 442 1536
2019-09-17 01:22:32 GMT 39.943359 -77.174683 34,675 273 442 1600
2019-09-17 01:22:28 GMT 39.943039 -77.164001 34,600 273 443 1600
2019-09-17 01:22:25 GMT 39.942844 -77.154922 34,175 273 443 1536
2019-09-17 01:22:22 GMT 39.942516 -77.144249 34,425 273 443 1600
2019-09-17 01:22:18 GMT 39.941849 -77.126770 34,250 273 443 1664
2019-09-17 01:22:15 GMT 39.941849 -77.126770 34,225 273 443 1664
2019-09-17 01:22:09 GMT 39.941483 -77.115112 34,000 273 444 1728
2019-09-17 01:22:06 GMT 39.941162 -77.105469 33,950 273 444 1728
2019-09-17 01:22:03 GMT 39.940979 -77.096924 33,775 273 445 1856
2019-09-17 01:22:00 GMT 39.940613 -77.086243 33,875 273 444 1792
2019-09-17 01:21:57 GMT 39.940292 -77.078674 33,725 273 445 1856
2019-09-17 01:21:54 GMT 39.940098 -77.070778 33,575 273 445 1856
2019-09-17 01:21:50 GMT 39.939774 -77.062225 33,425 273 445 1920
2019-09-17 01:21:46 GMT 39.939240 -77.048828 33,375 273 446 1920
2019-09-17 01:21:40 GMT 39.938736 -77.032715 33,175 273 446 1984
2019-09-17 01:21:37 GMT 39.938416 -77.025330 33,050 273 447 2048
2019-09-17 01:21:31 GMT 39.937866 -77.007996 32,875 273 447 1984
2019-09-17 01:21:26 GMT 39.937546 -76.996155 32,725 273 448 1920
2019-09-17 01:21:23 GMT 39.937210 -76.988068 32,650 273 448 1920
2019-09-17 01:21:20 GMT 39.937042 -76.982239 32,400 273 448 1920
2019-09-17 01:21:16 GMT 39.936512 -76.968842 32,350 273 449 1920
2019-09-17 01:21:12 GMT 39.935806 -76.947754 32,250 273 451 2112
2019-09-17 01:21:08 GMT 39.935806 -76.947754 32,100 273 449 1920
2019-09-17 01:21:04 GMT 39.935486 -76.936890 32,025 273 450 1920
2019-09-17 01:21:01 GMT 39.935116 -76.927834 31,925 273 450 1920
2019-09-17 01:20:55 GMT 39.934296 -76.905518 31,400 273 451 2048
2019-09-17 01:20:52 GMT 39.934296 -76.905518 31,575 273 455 2432
2019-09-17 01:20:49 GMT 39.934093 -76.897430 31,450 273 451 2048
2019-09-17 01:20:45 GMT 39.933609 -76.884888 30,575 273 461 3008
2019-09-17 01:20:41 GMT 39.933254 -76.873589 31,275 273 452 2112
2019-09-17 01:20:36 GMT 39.932739 -76.861023 31,050 273 453 2176
2019-09-17 01:20:32 GMT 39.932373 -76.850220 30,775 273 453 2240
2019-09-17 01:20:29 GMT 39.932236 -76.844727 30,725 273 453 2240
2019-09-17 01:20:23 GMT 39.931534 -76.826706 30,625 273 454 2368
2019-09-17 01:20:18 GMT 39.931000 -76.810913 30,325 273 456 2624
2019-09-17 01:20:15 GMT 39.930679 -76.803162 30,200 273 457 2688
2019-09-17 01:20:12 GMT 39.930496 -76.797668 30,100 273 457 2752
2019-09-17 01:20:09 GMT 39.930134 -76.788445 29,800 273 461 2944
2019-09-17 01:20:04 GMT 39.929623 -76.775208 29,775 273 464 2688
2019-09-17 01:20:01 GMT 39.929485 -76.768532 29,625 273 461 3008
2019-09-17 01:19:58 GMT 39.928970 -76.757355 29,425 273 463 2944
2019-09-17 01:19:53 GMT 39.928459 -76.741753 29,175 273 464 2496
2019-09-17 01:19:49 GMT 39.927933 -76.730042 29,000 273 465 2048
2019-09-17 01:19:44 GMT 39.927567 -76.717712 28,875 273 465 1920
2019-09-17 01:19:40 GMT 39.927063 -76.705505 28,725 273 440 1920
2019-09-17 01:19:36 GMT 39.926193 -76.683167 28,575 273 464 1920
2019-09-17 01:19:32 GMT 39.926193 -76.683167 28,475 273 464 1920
2019-09-17 01:19:27 GMT 39.925690 -76.669800 28,275 273 462 1792
2019-09-17 01:19:19 GMT 39.925014 -76.649178 28,100 273 462 1792
2019-09-17 01:19:15 GMT 39.924641 -76.638069 27,975 273 462 1792
2019-09-17 01:19:12 GMT 39.924316 -76.629265 27,825 273 459 1856
2019-09-17 01:19:09 GMT 39.923996 -76.619873 27,775 273 461 1792
2019-09-17 01:19:02 GMT 39.923309 -76.604431 27,600 273 460 1856
2019-09-17 01:18:58 GMT 39.922760 -76.591003 27,275 273 450 1984
2019-09-17 01:18:53 GMT 39.921753 -76.562531 27,275 273 449 1920
2019-09-17 01:18:47 GMT 39.921753 -76.562531 27,075 273 440 1920
2019-09-17 01:18:44 GMT 39.921246 -76.549805 26,950 273 456 1856
2019-09-17 01:18:41 GMT 39.921066 -76.546043 26,950 273 456 1856
2019-09-17 01:18:37 GMT 39.920700 -76.535065 26,800 273 455 1856
2019-09-17 01:18:30 GMT 39.919876 -76.516495 26,650 273 454 1920
2019-09-17 01:18:26 GMT 39.919327 -76.501205 26,425 273 454 1920
2019-09-17 01:18:23 GMT 39.919010 -76.492981 26,325 273 453 1856
2019-09-17 01:18:16 GMT 39.918312 -76.476685 26,150 273 451 1920
2019-09-17 01:18:13 GMT 39.918125 -76.470154 25,975 273 450 1984
2019-09-17 01:18:10 GMT 39.917801 -76.460571 25,975 273 450 1984
2019-09-17 01:18:05 GMT 39.917130 -76.446991 25,825 273 440 1920
2019-09-17 01:18:01 GMT 39.916763 -76.437202 25,100 273 448 1984
2019-09-17 01:17:57 GMT 39.916077 -76.420532 24,950 273 446 2240
2019-09-17 01:17:49 GMT 39.915379 -76.402344 25,125 273 446 2176
2019-09-17 01:17:46 GMT 39.915207 -76.395340 25,125 273 446 2176
2019-09-17 01:17:42 GMT 39.914539 -76.381958 24,950 273 445 2112
2019-09-17 01:17:39 GMT 39.914352 -76.375549 24,875 273 445 2048
2019-09-17 01:17:35 GMT 39.913841 -76.363892 24,725 274 444 2048
2019-09-17 01:17:31 GMT 39.913517 -76.356323 24,500 274 442 2240
2019-09-17 01:17:28 GMT 39.913147 -76.347275 24,500 274 443 2176
2019-09-17 01:17:25 GMT 39.912827 -76.339874 24,350 273 442 2240
2019-09-17 01:17:22 GMT 39.912491 -76.330750 24,250 273 442 2240
2019-09-17 01:17:17 GMT 39.911980 -76.318054 24,075 273 441 2176
2019-09-17 01:17:14 GMT 39.911610 -76.308655 23,975 273 441 2048
2019-09-17 01:17:07 GMT 39.910908 -76.289551 22,275 273 437 2112
2019-09-17 01:17:01 GMT 39.910397 -76.274841 23,575 273 437 2112
2019-09-17 01:16:56 GMT 39.909744 -76.260071 23,325 273 436 2240
2019-09-17 01:16:52 GMT 39.909557 -76.253845 23,175 273 436 2240
2019-09-17 01:16:49 GMT 39.909233 -76.245483 23,025 273 435 2304
2019-09-17 01:16:45 GMT 39.908676 -76.230896 22,925 273 435 2304
2019-09-17 01:16:41 GMT 39.908535 -76.224487 22,225 273 434 2176
2019-09-17 01:16:38 GMT 39.908203 -76.213531 22,675 273 433 2048
2019-09-17 01:16:31 GMT 39.907650 -76.189148 22,225 271 430 1792
2019-09-17 01:16:27 GMT 39.907650 -76.189148 22,400 271 431 1792
2019-09-17 01:16:23 GMT 39.907650 -76.175781 22,225 271 429 1792
2019-09-17 01:16:20 GMT 39.907516 -76.171143 22,175 271 428 1792
2019-09-17 01:16:15 GMT 39.907650 -76.153076 22,000 269 425 1280
2019-09-17 01:16:12 GMT 39.907837 -76.145874 21,925 269 425 1280
2019-09-17 01:16:08 GMT 39.907837 -76.139893 21,850 269 421 1152
2019-09-17 01:16:05 GMT 39.908203 -76.129227 21,800 269 420 1280
2019-09-17 01:16:00 GMT 39.908348 -76.119629 21,700 269 417 1728
2019-09-17 01:15:57 GMT 39.908524 -76.112267 21,550 269 415 2048
2019-09-17 01:15:53 GMT 39.908707 -76.102119 21,275 269 414 2112
2019-09-17 01:15:49 GMT 39.909046 -76.090820 21,275 269 409 2880
2019-09-17 01:15:45 GMT 39.909233 -76.080811 21,100 269 412 2112
2019-09-17 01:15:42 GMT 39.909393 -76.071548 21,000 268 410 2496
2019-09-17 01:15:39 GMT 39.909557 -76.065063 20,925 268 410 2560
2019-09-17 01:15:36 GMT 39.909714 -76.058708 20,825 268 409 2688
2019-09-17 01:15:29 GMT 39.910259 -76.039490 19,450 269 406 2624
2019-09-17 01:15:26 GMT 39.910397 -76.032593 20,375 269 409 2816
2019-09-17 01:15:21 GMT 39.910770 -76.021790 20,125 269 408 2624
2019-09-17 01:15:15 GMT 39.911095 -76.009094 19,550 269 405 2688
2019-09-17 01:15:10 GMT 39.911453 -75.995003 19,450 269 406 2624
2019-09-17 01:15:06 GMT 39.911636 -75.983177 19,275 269 405 2688
2019-09-17 01:15:01 GMT 39.912140 -75.965622 19,025 269 404 2624
2019-09-17 01:14:55 GMT 39.912308 -75.957397 18,950 269 404 2624
2019-09-17 01:14:48 GMT 39.912632 -75.940918 18,650 269 403 2496
2019-09-17 01:14:43 GMT 39.912819 -75.931335 17,825 269 397 2752
2019-09-17 01:14:37 GMT 39.913330 -75.914513 18,075 269 400 2496
2019-09-17 01:14:34 GMT 39.913330 -75.909180 18,100 269 397 2752
2019-09-17 01:14:26 GMT 39.913841 -75.889954 17,750 269 397 2752
2019-09-17 01:14:21 GMT 39.914028 -75.878601 16,975 269 397 2752
2019-09-17 01:14:17 GMT 39.914383 -75.864716 17,250 269 395 2752
2019-09-17 01:14:12 GMT 39.914539 -75.855774 17,175 269 392 2432
2019-09-17 01:14:07 GMT 39.914726 -75.841553 16,775 269 392 2432
2019-09-17 01:14:02 GMT 39.915054 -75.825562 16,550 269 391 2432
2019-09-17 01:13:56 GMT 39.915237 -75.816162 16,400 269 389 2496
2019-09-17 01:13:52 GMT 39.915390 -75.808235 16,300 269 387 2624
2019-09-17 01:13:45 GMT 39.915752 -75.792969 15,950 269 385 2624
2019-09-17 01:13:41 GMT 39.915890 -75.784546 15,800 269 383 2432
2019-09-17 01:13:34 GMT 39.916264 -75.767883 15,500 269 382 2368
2019-09-17 01:13:31 GMT 39.916443 -75.761002 15,375 269 381 2368
2019-09-17 01:13:23 GMT 39.916763 -75.741959 15,025 269 377 2816
2019-09-17 01:13:19 GMT 39.917130 -75.733894 14,900 269 376 2944
2019-09-17 01:13:14 GMT 39.917286 -75.721741 14,575 269 374 2880
2019-09-17 01:13:10 GMT 39.917473 -75.713623 14,400 269 373 2752
2019-09-17 01:13:07 GMT 39.917614 -75.707275 14,175 268 372 2688
2019-09-17 01:13:04 GMT 39.917984 -75.698364 14,100 268 371 2688
2019-09-17 01:13:01 GMT 39.918320 -75.689949 13,925 267 370 2688
2019-09-17 01:12:50 GMT 39.919327 -75.667801 13,450 266 366 2752
2019-09-17 01:12:42 GMT 39.920563 -75.651138 12,950 264 363 3008
2019-09-17 01:12:39 GMT 39.921249 -75.643440 12,900 264 363 3072
2019-09-17 01:12:29 GMT 39.923290 -75.623207 12,475 263 359 2496
2019-09-17 01:12:22 GMT 39.924828 -75.607719 12,025 263 354 3264
2019-09-17 01:12:18 GMT 39.925713 -75.600166 11,950 263 354 3520
2019-09-17 01:12:09 GMT 39.927574 -75.581627 11,500 263 353 3712
2019-09-17 01:12:06 GMT 39.928436 -75.573730 11,175 263 353 3712
2019-09-17 01:11:59 GMT 39.929993 -75.557617 10,700 263 356 2368
2019-09-17 01:11:48 GMT 39.932236 -75.536316 10,475 263 357 1024
2019-09-17 01:11:38 GMT 39.934280 -75.515526 10,375 263 356 1024
2019-09-17 01:11:35 GMT 39.935631 -75.502663 10,275 263 356 1024
2019-09-17 01:11:27 GMT 39.937023 -75.489120 10,175 263 354 1024
2019-09-17 01:11:19 GMT 39.938553 -75.472656 10,050 263 354 704
2019-09-17 01:11:15 GMT 39.939259 -75.466461 10,025 263 353 640
2019-09-17 01:11:07 GMT 39.940979 -75.449280 9,975 263 349 512
2019-09-17 01:11:02 GMT 39.942333 -75.436440 9,925 263 342 128
2019-09-17 01:10:57 GMT 39.943031 -75.429192 9,925 263 338 0
2019-09-17 01:10:54 GMT 39.943542 -75.423515 9,925 263 334 -64
2019-09-17 01:10:51 GMT 39.944241 -75.416527 9,950 263 331 -64
2019-09-17 01:10:47 GMT 39.945080 -75.407410 9,975 264 313 -192
2019-09-17 01:10:43 GMT 39.945602 -75.401917 9,975 264 306 -192
2019-09-17 01:10:37 GMT 39.946476 -75.391808 9,875 264 272 896
2019-09-17 01:10:34 GMT 39.946976 -75.385925 9,975 264 281 384
2019-09-17 01:10:24 GMT 39.948524 -75.367897 9,825 264 271 960
2019-09-17 01:10:16 GMT 39.949539 -75.355225 9,725 265 272 960
2019-09-17 01:10:11 GMT 39.950062 -75.349045 9,650 265 272 960
2019-09-17 01:10:06 GMT 39.950760 -75.340614 9,550 265 274 960
2019-09-17 01:10:03 GMT 39.951279 -75.333618 9,500 265 274 1024
2019-09-17 01:09:56 GMT 39.952106 -75.322075 9,375 265 276 1024
2019-09-17 01:09:52 GMT 39.952621 -75.316772 9,325 264 276 960
2019-09-17 01:09:49 GMT 39.953156 -75.310608 9,275 264 277 832
2019-09-17 01:09:45 GMT 39.953659 -75.305298 9,225 263 277 896
2019-09-17 01:09:40 GMT 39.954208 -75.298584 9,150 263 277 960
2019-09-17 01:09:35 GMT 39.955215 -75.288635 9,050 264 277 896
2019-09-17 01:09:28 GMT 39.956085 -75.278687 8,925 263 277 1088
2019-09-17 01:09:24 GMT 39.957092 -75.268860 8,850 262 276 1280
2019-09-17 01:09:21 GMT 39.957600 -75.264587 8,725 262 276 1664
2019-09-17 01:09:14 GMT 39.958832 -75.254272 8,600 262 277 2304
2019-09-17 01:09:11 GMT 39.959518 -75.248474 8,400 262 278 2944
2019-09-17 01:09:07 GMT 39.960022 -75.243988 8,050 263 278 3392
2019-09-17 01:09:03 GMT 39.960892 -75.235718 7,975 263 278 3392
2019-09-17 01:09:00 GMT 39.961231 -75.231438 7,825 263 277 3328
2019-09-17 01:08:54 GMT 39.962769 -75.213089 7,100 264 273 3264
2019-09-17 01:08:49 GMT 39.962769 -75.213089 7,250 266 271 3520
2019-09-17 01:08:46 GMT 39.963093 -75.208473 6,900 268 270 3520
2019-09-17 01:08:43 GMT 39.963272 -75.204346 6,600 269 270 3456
2019-09-17 01:08:38 GMT 39.963467 -75.195549 6,575 273 266 3456
2019-09-17 01:08:32 GMT 39.962952 -75.185608 6,275 275 265 3520
2019-09-17 01:08:29 GMT 39.962448 -75.181152 6,025 289 262 3968
2019-09-17 01:08:24 GMT 39.961044 -75.174133 5,750 289 262 3968
2019-09-17 01:08:21 GMT 39.959839 -75.170349 5,700 290 261 4032
2019-09-17 01:08:18 GMT 39.958302 -75.166023 5,325 300 261 4352
2019-09-17 01:08:11 GMT 39.952805 -75.156410 4,950 313 264 3712
2019-09-17 01:08:08 GMT 39.950089 -75.153198 4,700 321 265 3264
2019-09-17 01:08:02 GMT 39.944412 -75.148193 4,200 336 261 2944
2019-09-17 01:07:58 GMT 39.939445 -75.145294 4,175 341 260 3008
2019-09-17 01:07:51 GMT 39.931347 -75.142860 3,825 352 257 3264
2019-09-17 01:07:48 GMT 39.926376 -75.142517 3,425 2 256 3328
2019-09-17 01:07:41 GMT 39.919147 -75.143555 3,275 9 254 3264
2019-09-17 01:07:36 GMT 39.914169 -75.145447 2,975 19 252 3008
2019-09-17 01:07:33 GMT 39.909557 -75.148193 2,825 25 250 2496
2019-09-17 01:07:30 GMT 39.904404 -75.152512 2,625 35 243 2240
2019-09-17 01:07:27 GMT 39.904404 -75.152512 2,625 37 242 2240
2019-09-17 01:07:21 GMT 39.899277 -75.158669 2,375 48 235 2304
2019-09-17 01:07:18 GMT 39.898041 -75.160393 2,325 50 233 2304
2019-09-17 01:07:15 GMT 39.896011 -75.164185 2,200 55 229 2368
2019-09-17 01:07:10 GMT 39.893234 -75.170189 2,000 62 224 2112
2019-09-17 01:07:06 GMT 39.891357 -75.175323 1,875 65 216 1152

Making use of Plane Finder data

You are free to use the raw flight data, aircraft information and images provided in this report for your own purposes provided the data is correctly attributed to Plane Finder. We ask that you please credit Plane Finder and link to planefinder.net in close proximity to the content.

Optionally one of the following logos (no smaller then 150x24px) can be used and must link to planefinder.net

Embedding the Plane Finder map

You are welcome to embed the Plane Finder playback map on your website to offer visitors a more interactive experience. We suggest using the following HTML code:

<iframe src="//planefinder.net/data/report/AA726-N349AN-7700-squawk-2019-09-17/map" width="800" height="600" seamless="seamless"></iframe>

Where our data comes from

Plane Finder has a global network of data feeds and antenna radars that receive data broadcast directly from aircraft. The primary technologies used are ADS-B and MLAT. We also show feeds from the FAA and a FLARM glider feed.

Click here to find out more about the Plane Finder network.

How we collect our data